Time,TemperatureF,DewpointF,PressureIn,WindDirection,WindDirectionDegrees,WindSpeedMPH,WindSpeedGustMPH,Humidity,HourlyPrecipIn,Conditions,Clouds,dailyrainin,SoftwareType,DateUTC
2013-01-11 00:00:00,21.4,3.3,30.06,South,178,3.6,5.4,45,0.00,,---,0.00,VWS V14.01,2013-01-11 08:00:00,
2013-01-11 00:20:00,20.8,3.3,30.09,NNE,17,3.1,6.3,46,0.00,,---,0.00,VWS V14.01,2013-01-11 08:20:00,
2013-01-11 00:40:00,20.8,4.2,30.09,North,5,2.7,7.2,48,0.00,,---,0.00,VWS V14.01,2013-01-11 08:40:00,
2013-01-11 01:00:00,19.8,3.7,30.09,NW,311,3.1,5.8,49,0.00,,---,0.00,VWS V14.01,2013-01-11 09:00:00,
2013-01-11 01:20:00,18.3,4.9,30.09,NNW,343,3.6,5.4,55,0.00,,---,0.00,VWS V14.01,2013-01-11 09:20:00,
2013-01-11 01:40:00,17.6,5.7,30.09,NNW,337,2.2,4.0,59,0.00,,---,0.00,VWS V14.01,2013-01-11 09:40:00,
2013-01-11 02:00:00,16.0,4.6,30.09,NNW,337,0.0,3.1,60,0.00,,---,0.00,VWS V14.01,2013-01-11 10:00:00,
2013-01-11 02:20:00,15.3,5.6,30.09,NNW,337,0.0,2.7,65,0.00,,---,0.00,VWS V14.01,2013-01-11 10:20:00,
2013-01-11 02:40:00,13.6,3.4,30.12,NNW,337,0.0,2.7,63,0.00,,---,0.00,VWS V14.01,2013-01-11 10:40:00,
2013-01-11 03:00:00,14.0,5.4,30.09,NNW,337,2.2,2.2,68,0.00,,---,0.00,VWS V14.01,2013-01-11 11:00:00,
2013-01-11 03:20:00,13.8,5.2,30.12,NNW,337,0.0,2.2,68,0.00,,---,0.00,VWS V14.01,2013-01-11 11:20:00,
2013-01-11 03:40:00,14.4,6.4,30.12,NNW,337,0.0,3.6,70,0.00,,---,0.00,VWS V14.01,2013-01-11 11:40:00,
2013-01-11 04:00:00,14.4,5.8,30.12,NNW,337,2.7,3.6,68,0.00,,---,0.00,VWS V14.01,2013-01-11 12:00:00,
2013-01-11 04:20:00,14.5,5.3,30.12,NNW,337,0.0,3.6,66,0.00,,---,0.00,VWS V14.01,2013-01-11 12:20:00,
2013-01-11 04:40:00,12.9,3.7,30.12,NNW,337,2.7,3.1,66,0.00,,---,0.00,VWS V14.01,2013-01-11 12:40:00,
2013-01-11 05:00:00,13.5,4.2,30.12,NNW,337,0.0,2.7,66,0.00,,---,0.00,VWS V14.01,2013-01-11 13:00:00,
2013-01-11 05:20:00,12.9,3.7,30.12,NNW,337,0.0,0.0,66,0.00,,---,0.00,VWS V14.01,2013-01-11 13:20:00,
2013-01-11 05:40:00,12.6,3.4,30.12,NNW,337,0.0,2.7,66,0.00,,---,0.00,VWS V14.01,2013-01-11 13:40:00,
2013-01-11 06:00:00,11.8,2.7,30.12,NNW,337,0.0,2.7,66,0.00,,---,0.00,VWS V14.01,2013-01-11 14:00:00,
2013-01-11 06:20:00,12.6,3.4,30.12,NNW,337,0.0,2.7,66,0.00,,---,0.00,VWS V14.01,2013-01-11 14:20:00,
2013-01-11 06:40:00,12.9,3.7,30.15,NNW,337,2.2,3.1,66,0.00,,---,0.00,VWS V14.01,2013-01-11 14:40:00,
2013-01-11 07:00:00,13.8,4.6,30.15,NNW,329,2.2,4.0,66,0.00,,---,0.00,VWS V14.01,2013-01-11 15:00:00,
2013-01-11 07:20:00,15.8,4.4,30.15,NNW,345,2.7,4.0,60,0.00,,---,0.00,VWS V14.01,2013-01-11 15:20:00,
2013-01-11 07:40:00,20.5,6.1,30.15,NNW,342,2.7,3.6,53,0.00,,---,0.00,VWS V14.01,2013-01-11 15:40:00,
2013-01-11 08:00:00,22.5,5.3,30.15,North,353,4.0,6.3,47,0.00,,---,0.00,VWS V14.01,2013-01-11 16:00:00,
2013-01-11 08:20:00,26.8,5.2,30.15,NNW,339,3.6,6.3,39,0.00,,---,0.00,VWS V14.01,2013-01-11 16:20:00,
2013-01-11 08:40:00,27.7,2.3,30.15,North,1,2.2,6.3,33,0.00,,---,0.00,VWS V14.01,2013-01-11 16:40:00,
2013-01-11 09:00:00,30.2,-6.0,30.15,NW,308,3.6,8.1,20,0.00,,---,0.00,VWS V14.01,2013-01-11 17:00:00,
2013-01-11 09:20:00,30.6,-7.9,30.15,North,353,4.0,7.6,18,0.00,,---,0.00,VWS V14.01,2013-01-11 17:20:00,
2013-01-11 09:40:00,30.9,-7.6,30.15,NNW,342,3.1,8.7,18,0.00,,---,0.00,VWS V14.01,2013-01-11 17:40:00,
2013-01-11 10:00:00,33.1,-5.8,30.15,WSW,249,3.1,8.3,18,0.00,,---,0.00,VWS V14.01,2013-01-11 18:00:00,
2013-01-11 10:20:00,34.7,-5.6,30.15,WSW,242,5.8,8.3,17,0.00,,---,0.00,VWS V14.01,2013-01-11 18:20:00,
2013-01-11 10:40:00,36.5,-8.2,30.15,SSW,213,6.3,10.1,14,0.00,,---,0.00,VWS V14.01,2013-01-11 18:40:00,
2013-01-11 11:00:00,39.9,-6.9,30.12,NNE,16,5.4,9.6,13,0.00,,---,0.00,VWS V14.01,2013-01-11 19:00:00,
2013-01-11 11:20:00,40.3,-6.7,30.12,WSW,238,0.0,8.1,13,0.00,,---,0.00,VWS V14.01,2013-01-11 19:20:00,
2013-01-11 11:40:00,46.0,-3.7,30.12,NNW,330,2.2,8.7,12,0.00,,---,0.00,VWS V14.01,2013-01-11 19:40:00,
2013-01-11 12:00:00,42.1,-5.2,30.09,SSW,205,8.1,15.0,13,0.00,,---,0.00,VWS V14.01,2013-01-11 20:00:00,
2013-01-11 12:20:00,40.5,-6.5,30.09,SSW,209,12.8,13.2,13,0.00,,---,0.00,VWS V14.01,2013-01-11 20:20:00,
2013-01-11 12:40:00,42.8,-4.6,30.09,South,191,9.6,13.2,13,0.00,,---,0.00,VWS V14.01,2013-01-11 20:40:00,
2013-01-11 13:00:00,44.8,-4.7,30.09,South,183,8.1,10.5,12,0.00,,---,0.00,VWS V14.01,2013-01-11 21:00:00,
2013-01-11 13:20:00,44.1,-3.6,30.09,SW,227,5.8,10.1,13,0.00,,---,0.00,VWS V14.01,2013-01-11 21:20:00,
2013-01-11 13:40:00,47.7,-2.5,30.09,SSE,165,8.1,8.1,12,0.00,,---,0.00,VWS V14.01,2013-01-11 21:40:00,
2013-01-11 14:00:00,45.9,-3.9,30.09,SW,216,2.7,8.1,12,0.00,,---,0.00,VWS V14.01,2013-01-11 22:00:00,
2013-01-11 14:20:00,43.7,-3.9,30.09,WSW,258,3.6,10.5,13,0.00,,---,0.00,VWS V14.01,2013-01-11 22:20:00,
2013-01-11 14:40:00,44.1,-3.6,30.06,SSW,205,4.0,9.6,13,0.00,,---,0.00,VWS V14.01,2013-01-11 22:40:00,
2013-01-11 15:00:00,43.9,-3.8,30.06,South,185,3.6,12.8,13,0.00,,---,0.00,VWS V14.01,2013-01-11 23:00:00,
2013-01-11 15:20:00,43.3,-4.2,30.09,WSW,248,4.0,10.1,13,0.00,,---,0.00,VWS V14.01,2013-01-11 23:20:00,
2013-01-11 15:40:00,35.6,-8.9,30.06,SSW,205,6.3,7.6,14,0.00,,---,0.00,VWS V14.01,2013-01-11 23:40:00,
2013-01-11 16:00:00,30.9,-11.3,30.06,West,270,6.3,8.7,15,0.00,,---,0.00,VWS V14.01,2013-01-12 00:00:00,
2013-01-11 16:20:00,30.4,-11.7,30.06,WSW,237,0.0,6.3,15,0.00,,---,0.00,VWS V14.01,2013-01-12 00:20:00,
2013-01-11 16:40:00,27.7,-12.6,30.06,South,185,2.7,5.8,16,0.00,,---,0.00,VWS V14.01,2013-01-12 00:40:00,
2013-01-11 17:00:00,25.7,-8.8,30.06,SW,219,0.0,5.8,21,0.00,,---,0.00,VWS V14.01,2013-01-12 01:00:00,
2013-01-11 17:20:00,25.0,-5.1,30.06,SSW,198,2.7,5.4,26,0.00,,---,0.00,VWS V14.01,2013-01-12 01:20:00,
2013-01-11 17:40:00,26.8,0.2,30.09,SSW,203,0.0,5.4,31,0.00,,---,0.00,VWS V14.01,2013-01-12 01:40:00,
2013-01-11 18:00:00,27.0,5.3,30.06,SSW,199,0.0,3.6,39,0.00,,---,0.00,VWS V14.01,2013-01-12 02:00:00,
2013-01-11 18:20:00,26.8,6.2,30.09,South,185,2.2,4.0,41,0.00,,---,0.00,VWS V14.01,2013-01-12 02:20:00,
2013-01-11 18:40:00,27.0,6.9,30.09,SSW,210,4.0,4.9,42,0.00,,---,0.00,VWS V14.01,2013-01-12 02:40:00,
2013-01-11 19:00:00,27.0,6.9,30.09,SW,219,4.0,6.7,42,0.00,,---,0.00,VWS V14.01,2013-01-12 03:00:00,
2013-01-11 19:20:00,27.0,7.5,30.09,SW,233,3.6,6.3,43,0.00,,---,0.00,VWS V14.01,2013-01-12 03:20:00,
2013-01-11 19:40:00,26.8,8.3,30.09,SSE,166,5.8,8.3,45,0.00,,---,0.00,VWS V14.01,2013-01-12 03:40:00,
2013-01-11 20:00:00,26.4,8.5,30.09,SW,224,0.0,5.8,46,0.00,,---,0.00,VWS V14.01,2013-01-12 04:00:00,
2013-01-11 20:20:00,26.2,8.8,30.09,SSW,194,2.7,5.4,47,0.00,,---,0.00,VWS V14.01,2013-01-12 04:20:00,
2013-01-11 20:40:00,25.9,9.8,30.09,SSW,206,0.0,5.4,50,0.00,,---,0.00,VWS V14.01,2013-01-12 04:40:00,
2013-01-11 21:20:00,24.4,10.2,30.09,SSW,206,0.0,2.7,54,0.00,,---,0.00,VWS V14.01,2013-01-12 05:20:00,
2013-01-11 21:40:00,23.9,9.3,30.09,SSW,206,0.0,0.0,53,0.00,,---,0.00,VWS V14.01,2013-01-12 05:40:00,
2013-01-11 22:00:00,24.4,10.2,30.09,SSW,206,3.1,4.0,54,0.00,,---,0.00,VWS V14.01,2013-01-12 06:00:00,
2013-01-11 22:20:00,24.3,10.0,30.09,SSW,213,3.1,4.0,54,0.00,,---,0.00,VWS V14.01,2013-01-12 06:20:00,
2013-01-11 22:40:00,22.6,8.9,30.09,SSW,213,0.0,3.1,55,0.00,,---,0.00,VWS V14.01,2013-01-12 06:40:00,
2013-01-11 23:00:00,22.8,11.0,30.09,SSW,213,0.0,2.2,60,0.00,,---,0.00,VWS V14.01,2013-01-12 07:00:00,
2013-01-11 23:20:00,20.5,9.2,30.09,SSW,213,0.0,0.0,61,0.00,,---,0.00,VWS V14.01,2013-01-12 07:20:00,
2013-01-11 23:40:00,17.6,6.8,30.06,SSW,213,0.0,0.0,62,0.00,,---,0.00,VWS V14.01,2013-01-12 07:40:00,